Clayton, IN

7:27 PM EDT on October 21, 2019 (GMT -0400)
Clayton | | Change Station

Elev 827 ft 39.65 °N, 86.56 °W | Updated 3 seconds ago

Overcast
Overcast
64.1 °F
Feels Like 64.1 °F
N
8
Wind Variable Wind from SW
Gusts 9.0 mph

Today
High -- | Low -- °F
--% Chance of Precip.
Yesterday
High -- | Low -- °F
Precip. -- in
Pressure 29.63 in
Visibility 9.0 miles
Clouds Few 1600 ft
Mostly Cloudy 3000 ft
Mostly Cloudy 6000 ft
Overcast 20000 ft
Dew Point 60 °F
Humidity 87%
Rainfall 0.71 in
Snow Depth Not available.
8:02 AM 6:58 PM
Last Quarter, 45% visible
METAR KIND 212254Z 19012KT 9SM -RA FEW016 BKN030 BKN060 OVC200 17/16 A2964 RMK AO2 RAE2157B51 SLP034 P0000 T01720161
Pressure 29.63 in
Visibility 9.0 miles
Clouds Few 1600 ft
Mostly Cloudy 3000 ft
Mostly Cloudy 6000 ft
Overcast 20000 ft
Dew Point 60 °F
Humidity 87%
Rainfall 0.71 in
Snow Depth Not available.
8:02 AM 6:58 PM
Last Quarter, 45% visible
METAR KIND 212254Z 19012KT 9SM -RA FEW016 BKN030 BKN060 OVC200 17/16 A2964 RMK AO2 RAE2157B51 SLP034 P0000 T01720161

Get Severe Weather Alerts

Thanks for signing up!

Be on the lookout for a verification email in your inbox.

You'll start receiving the daily forecast at 6 AM.

×

10-Day Weather Forecast

Almanac

Astronomy

Oct. 21, 2019 Rise Set
Actual Time
Civil Twilight
Nautical Twilight
Astronomical Twilight
Moon
Length of Visible Light
Length of Day
Tomorrow will be .
, % of the Moon is Illuminated

Today's Extremes

State Highs State Lows

Community

WunderPhotos

Category 6

Welcome to Category 6. This is the collective home for Weather Underground's featured writeups by Dr. Jeff Masters (right), Bob Henson (left), Chris Burt, and other regular contributors.

Nearby

Air Quality

  Air Quality AQ Index Pollutant
Not available.

Snow Depth

Station Depth Elevation

Earthquake Activity

City Distance Mag. Time & Date
Minimum magnitude displayed is 2.5.

Coastal Water Temperatures

Place Temperature

Stations

Nearby Weather Stations

Station Location Temp. Windchill Dew Point Humidity Wind Precip. Elev Updated Type
                   

Watches & Warnings

There are currently no watches in effect.